Terminal Aerodrome Forecast
Issued by NWS Newport/Morehead City, NC

Home | Current Version | Previous Version | Graphics & Text | Print | Product List | Glossary On
Versions: 1 2 3 4 5 6 7 8 9 10 11 12 13 14 15 16 17 18 19
000
FTUS42 KMHX 042031 AAA
TAFEWN
TAF AMD
KEWN 042031Z 0421/0518 29010KT P6SM VCTS SCT050CB
     FM042300 04005KT P6SM SCT050
     FM050800 02003KT P6SM BKN015
     FM051400 04008KT P6SM SCT020 BKN035=

USA.gov is the U.S. government's official web portal to all federal, state and local government web resources and services.